Howes, South Dakota
Current Conditions -  °F | °C
As of 7:55 PM on Sunday 21 Dec 2014 (Local Time) from KPHP Reporting Station
Overcast Overcast  
Wind Chill: 29°   Ceiling: 3600
Heat Index: 35°   Visibility: 10mi
Dew Point: 31°   Wind: 8mph
Humidity: 85%   Direction: 260°W
Pressure: 29.43"   Gusts: NA
Location:  44.62°N, 102.05°W
Report Text: KPHP 220255Z AUTO 26007KT 10SM OVC036 02/M01 A2943 RMK AO2 RAE26 SLP988 P0000 60000 T00171006 51010
Loading
Personal Weather Stations






























Interactive Weather Map New forecast layout! Learn more

10-Day Weather Forecast

Advertisements
Track Severe Weather on mobile